Time;durP1;ratioP1;P1;durP2;ratioP2;P2;SDS_P1;SDS_P2;PMS_P1;PMS_P2;Temp;Humidity;BMP_temperature;BMP_pressure;BME280_temperature;BME280_humidity;BME280_pressure;Samples;Min_cycle;Max_cycle;Signal;HPM_P1;HPM_P2
2022/07/07 00:00:39;;;;;;;5.15;1.48;;;;;;;27.10;45.91;100817.56;4939208;29;20043;-65
2022/07/07 00:03:24;;;;;;;6.13;0.95;;;;;;;27.26;45.44;100812.09;4947045;29;20530;-64
2022/07/07 00:06:09;;;;;;;7.32;1.17;;;;;;;27.28;45.30;100820.81;4939422;29;20055;-64
2022/07/07 00:08:54;;;;;;;6.95;1.30;;;;;;;27.27;45.32;100813.66;4939231;29;20046;-64
2022/07/07 00:11:39;;;;;;;2.28;0.98;;;;;;;27.30;45.42;100817.59;4936474;29;20522;-64
2022/07/07 00:14:24;;;;;;;2.65;1.10;;;;;;;27.31;44.45;100805.22;4936704;29;20056;-64
2022/07/07 00:17:10;;;;;;;5.97;1.35;;;;;;;27.36;44.60;100819.47;4936430;29;20047;-64
2022/07/07 00:19:54;;;;;;;5.70;1.17;;;;;;;27.33;44.25;100809.16;4936548;29;20059;-64
2022/07/07 00:22:39;;;;;;;2.88;1.77;;;;;;;27.31;44.24;100808.00;4932185;29;20055;-64
2022/07/07 00:25:24;;;;;;;1.90;0.95;;;;;;;27.23;44.65;100810.91;4946821;29;20055;-63
2022/07/07 00:28:10;;;;;;;4.15;1.05;;;;;;;27.28;44.53;100804.06;4946701;29;20042;-63
2022/07/07 00:30:55;;;;;;;4.00;1.02;;;;;;;27.22;44.83;100803.00;4944353;29;20058;-63
2022/07/07 00:33:40;;;;;;;4.05;1.10;;;;;;;27.19;44.66;100799.03;4936294;29;20379;-64
2022/07/07 00:36:25;;;;;;;2.28;0.90;;;;;;;27.19;44.59;100799.03;4938616;29;20054;-63
2022/07/07 00:39:10;;;;;;;2.30;1.33;;;;;;;27.18;44.49;100799.44;4934958;29;20042;-64
2022/07/07 00:41:55;;;;;;;2.30;1.27;;;;;;;27.14;44.50;100802.31;4936794;29;20054;-63
2022/07/07 00:44:40;;;;;;;4.05;1.05;;;;;;;27.17;44.63;100798.66;4934205;29;20073;-63
2022/07/07 00:47:26;;;;;;;3.40;0.88;;;;;;;27.19;44.57;100796.25;4944402;29;20058;-63
2022/07/07 00:50:11;;;;;;;3.35;1.00;;;;;;;27.16;44.35;100799.09;4943201;28;20408;-63
2022/07/07 00:52:56;;;;;;;1.85;1.02;;;;;;;27.12;44.45;100799.16;4935808;29;20059;-63
2022/07/07 00:55:41;;;;;;;3.28;1.10;;;;;;;27.12;44.51;100795.59;4935777;29;20390;-63
2022/07/07 00:58:26;;;;;;;4.40;1.42;;;;;;;27.12;44.49;100809.56;4935410;29;20638;-63
2022/07/07 01:01:11;;;;;;;2.67;0.90;;;;;;;27.10;44.48;100809.97;4935522;29;20522;-62
2022/07/07 01:03:57;;;;;;;1.52;0.82;;;;;;;27.10;44.45;100804.38;4939375;29;20391;-64
2022/07/07 01:06:43;;;;;;;5.75;1.05;;;;;;;27.06;44.58;100806.47;4935384;29;20058;-64
2022/07/07 01:09:28;;;;;;;4.97;1.20;;;;;;;27.05;44.52;100804.88;4935066;29;20066;-63
2022/07/07 01:12:13;;;;;;;10.68;0.88;;;;;;;26.97;44.70;100811.03;4934798;29;20054;-64
2022/07/07 01:14:58;;;;;;;7.13;1.10;;;;;;;26.49;44.85;100805.78;4939452;29;20059;-64
2022/07/07 01:17:43;;;;;;;2.78;0.90;;;;;;;26.10;46.32;100798.75;4992348;23;20063;-67
2022/07/07 01:20:28;;;;;;;9.15;1.52;;;;;;;26.43;47.14;100799.09;4934138;29;20049;-67
2022/07/07 01:23:14;;;;;;;4.13;1.20;;;;;;;26.26;48.24;100795.38;4945971;29;20050;-67
2022/07/07 01:25:59;;;;;;;2.60;0.98;;;;;;;26.22;50.09;100798.19;4940871;29;20050;-66
2022/07/07 01:28:44;;;;;;;12.15;1.15;;;;;;;26.01;50.00;100794.91;4937481;29;20043;-66
2022/07/07 01:31:29;;;;;;;3.33;1.15;;;;;;;25.87;50.28;100798.63;4954725;28;20039;-67
2022/07/07 01:34:14;;;;;;;2.33;1.27;;;;;;;25.72;51.21;100794.44;4951724;29;20054;-65
2022/07/07 01:36:59;;;;;;;3.08;1.00;;;;;;;25.23;53.26;100791.00;4932731;29;20055;-65
2022/07/07 01:39:44;;;;;;;8.27;1.52;;;;;;;25.57;53.45;100793.03;4934632;29;20068;-65
2022/07/07 01:42:29;;;;;;;3.00;0.90;;;;;;;25.40;53.79;100792.78;4953761;29;20054;-64
2022/07/07 01:45:14;;;;;;;4.50;1.42;;;;;;;25.11;50.38;100799.84;4940298;29;20053;-66
2022/07/07 01:47:59;;;;;;;1.90;0.90;;;;;;;25.33;51.37;100789.28;4949835;29;20050;-66
2022/07/07 01:50:44;;;;;;;2.97;1.10;;;;;;;25.66;50.93;100782.19;4938533;28;20050;-66
2022/07/07 01:53:29;;;;;;;3.60;1.00;;;;;;;25.98;49.72;100785.34;4954143;29;20058;-66
2022/07/07 01:56:14;;;;;;;3.47;1.10;;;;;;;25.94;49.85;100779.84;4953805;29;20054;-66
2022/07/07 01:58:59;;;;;;;6.57;1.20;;;;;;;25.96;49.23;100782.97;4942290;29;20051;-68
2022/07/07 02:01:44;;;;;;;5.40;1.20;;;;;;;26.19;49.17;100784.28;4934422;29;20055;-67
2022/07/07 02:04:29;;;;;;;0.95;0.68;;;;;;;26.43;48.74;100776.78;4951504;29;20050;-66
2022/07/07 02:07:14;;;;;;;5.88;1.00;;;;;;;26.49;47.79;100789.03;4953698;29;20050;-66
2022/07/07 02:10:00;;;;;;;3.97;1.25;;;;;;;26.50;47.61;100785.03;4941984;28;20066;-67
2022/07/07 02:12:45;;;;;;;1.60;0.80;;;;;;;26.61;47.27;100794.03;4941501;29;20407;-65
2022/07/07 02:15:32;;;;;;;3.53;0.95;;;;;;;26.66;46.76;100790.78;4940792;29;20058;-66
2022/07/07 02:18:17;;;;;;;6.35;1.10;;;;;;;26.66;46.43;100785.97;4948514;29;20399;-64
2022/07/07 02:21:04;;;;;;;3.83;1.20;;;;;;;26.73;46.31;100791.44;4942848;29;20054;-63
2022/07/07 02:23:50;;;;;;;6.15;1.17;;;;;;;26.70;46.09;100785.91;4939583;29;20062;-64
2022/07/07 02:26:35;;;;;;;4.47;1.55;;;;;;;26.67;46.21;100781.16;4934483;28;20046;-66
2022/07/07 02:29:20;;;;;;;1.85;0.90;;;;;;;26.66;46.40;100776.81;4939145;28;20051;-66
2022/07/07 02:32:05;;;;;;;2.92;0.90;;;;;;;26.58;46.37;100783.72;4957618;28;20054;-66
2022/07/07 02:34:50;;;;;;;5.45;1.00;;;;;;;26.66;46.33;100779.59;4952862;29;20066;-66
2022/07/07 02:37:35;;;;;;;4.05;0.95;;;;;;;26.70;45.74;100788.72;4922096;29;20066;-67
2022/07/07 02:40:20;;;;;;;4.63;1.10;;;;;;;26.77;45.72;100791.38;4933932;29;20522;-66
2022/07/07 02:43:05;;;;;;;2.25;0.93;;;;;;;26.73;45.48;100783.06;4934081;29;20074;-66
2022/07/07 02:45:51;;;;;;;1.63;0.77;;;;;;;26.71;45.75;100781.91;4935023;29;20522;-65
2022/07/07 02:48:37;;;;;;;2.22;0.80;;;;;;;26.63;46.05;100772.06;4940826;29;20050;-66
2022/07/07 02:51:22;;;;;;;4.13;0.90;;;;;;;26.61;46.18;100771.72;4952713;29;20054;-67
2022/07/07 02:54:07;;;;;;;3.35;0.95;;;;;;;26.62;46.41;100768.50;4947413;29;20054;-66
2022/07/07 02:56:52;;;;;;;5.70;1.25;;;;;;;26.66;46.09;100777.63;4944566;29;20051;-66
2022/07/07 02:59:37;;;;;;;4.70;1.20;;;;;;;26.69;46.28;100778.75;4931328;29;20047;-68
2022/07/07 03:02:22;;;;;;;2.55;1.02;;;;;;;26.69;46.22;100781.53;4941132;29;20058;-66
2022/07/07 03:05:08;;;;;;;8.65;1.02;;;;;;;26.49;45.63;100783.47;4933721;29;20062;-67
2022/07/07 03:07:53;;;;;;;3.35;1.35;;;;;;;26.11;47.50;100789.16;4933571;29;20407;-67
2022/07/07 03:10:38;;;;;;;2.92;1.00;;;;;;;26.14;46.91;100799.47;4934220;29;20054;-66
2022/07/07 03:13:22;;;;;;;11.07;1.25;;;;;;;25.02;50.47;100835.72;4945203;29;20051;-62
2022/07/07 03:16:08;;;;;;;3.47;1.23;;;;;;;25.54;48.93;100816.91;4949846;29;20066;-63
2022/07/07 03:18:53;;;;;;;6.68;1.30;;;;;;;26.03;47.87;100831.47;4946406;29;20047;-62
2022/07/07 03:21:38;;;;;;;1.92;1.15;;;;;;;26.23;47.06;100830.44;4933520;29;20063;-63
2022/07/07 03:24:23;;;;;;;10.32;2.92;;;;;;;26.38;46.98;100829.03;4933827;29;20091;-64
2022/07/07 03:27:08;;;;;;;5.57;1.17;;;;;;;26.29;45.78;100823.19;4933503;29;20044;-63
2022/07/07 03:29:52;;;;;;;2.50;1.23;;;;;;;26.10;44.12;100823.03;4937891;29;20046;-62
2022/07/07 03:32:37;;;;;;;5.57;1.10;;;;;;;25.95;44.54;100828.00;4935982;29;20116;-62
2022/07/07 03:35:22;;;;;;;1.90;1.00;;;;;;;25.94;44.95;100834.78;4950898;29;20127;-62
2022/07/07 03:38:07;;;;;;;4.90;1.33;;;;;;;25.93;46.40;100838.78;4944071;29;20046;-62
2022/07/07 03:40:52;;;;;;;3.15;1.35;;;;;;;26.05;45.95;100838.22;4936183;29;20047;-62
2022/07/07 03:43:37;;;;;;;2.92;1.00;;;;;;;26.28;46.41;100843.13;4932895;29;20070;-63
2022/07/07 03:46:22;;;;;;;5.93;0.95;;;;;;;26.29;45.24;100844.72;4933207;29;20070;-64
2022/07/07 03:49:07;;;;;;;1.23;0.82;;;;;;;26.33;45.64;100851.81;4933006;29;20066;-63
2022/07/07 03:51:52;;;;;;;5.38;1.40;;;;;;;26.30;45.14;100851.88;4922956;29;20218;-64
2022/07/07 03:54:38;;;;;;;3.20;0.90;;;;;;;26.17;45.70;100854.38;4939355;29;20050;-63
2022/07/07 03:57:22;;;;;;;2.00;1.05;;;;;;;26.38;46.27;100854.13;4944912;29;20055;-63
2022/07/07 04:00:11;;;;;;;2.25;0.95;;;;;;;26.38;45.43;100854.13;4946848;28;20059;-63
2022/07/07 04:02:56;;;;;;;2.47;1.17;;;;;;;26.30;45.58;100852.66;4945836;29;20054;-62
2022/07/07 04:05:41;;;;;;;2.25;0.88;;;;;;;26.30;45.46;100849.09;4933220;29;20058;-64
2022/07/07 04:08:26;;;;;;;3.92;0.80;;;;;;;26.53;45.99;100842.78;4941064;29;20050;-62
2022/07/07 04:11:11;;;;;;;1.90;0.98;;;;;;;26.50;45.72;100846.41;4938380;29;20059;-62
2022/07/07 04:13:56;;;;;;;3.08;1.00;;;;;;;26.53;44.98;100837.19;4947592;28;20046;-63
2022/07/07 04:16:41;;;;;;;2.58;1.20;;;;;;;26.63;43.72;100845.41;4934532;29;20066;-64
2022/07/07 04:19:26;;;;;;;2.28;0.80;;;;;;;26.65;44.82;100840.19;4950019;28;20090;-63
2022/07/07 04:22:11;;;;;;;1.70;1.27;;;;;;;26.65;44.06;100842.19;4938867;29;20063;-62
2022/07/07 04:24:56;;;;;;;4.82;1.63;;;;;;;26.74;44.45;100848.03;4938649;29;20046;-62
2022/07/07 04:27:41;;;;;;;9.68;1.27;;;;;;;26.77;43.50;100849.97;4917450;29;20055;-62
2022/07/07 04:30:26;;;;;;;4.68;0.70;;;;;;;26.80;42.78;100857.50;4917106;29;20510;-64
2022/07/07 04:33:11;;;;;;;2.65;0.77;;;;;;;26.80;42.49;100849.13;4920964;29;20063;-64
2022/07/07 04:35:56;;;;;;;3.33;0.90;;;;;;;26.76;42.15;100852.00;4948092;28;20046;-63
2022/07/07 04:38:41;;;;;;;1.40;0.75;;;;;;;26.78;42.21;100848.75;4948435;28;20042;-64
2022/07/07 04:41:26;;;;;;;1.13;0.70;;;;;;;26.81;42.13;100856.31;4948098;29;20055;-64
2022/07/07 04:44:11;;;;;;;2.88;1.02;;;;;;;26.81;41.01;100847.94;4955334;29;20066;-65
2022/07/07 04:46:56;;;;;;;3.90;0.90;;;;;;;26.87;42.04;100851.81;4955461;29;20052;-64
2022/07/07 04:49:41;;;;;;;6.60;0.98;;;;;;;26.91;40.91;100851.78;4955188;28;20055;-63
2022/07/07 04:52:26;;;;;;;2.97;0.90;;;;;;;26.89;40.64;100857.78;4944825;29;20054;-66
2022/07/07 04:55:11;;;;;;;5.47;1.13;;;;;;;26.85;40.65;100870.97;4934879;29;20094;-64
2022/07/07 04:57:56;;;;;;;6.90;0.80;;;;;;;26.80;40.89;100863.09;4943564;29;20054;-64
2022/07/07 05:00:41;;;;;;;2.17;0.70;;;;;;;26.77;40.75;100870.28;4944719;29;20062;-64
2022/07/07 05:03:26;;;;;;;2.28;0.80;;;;;;;26.70;41.12;100873.22;4949422;29;20514;-64
2022/07/07 05:06:11;;;;;;;4.60;1.00;;;;;;;26.77;41.28;100873.09;4958944;28;20050;-64
2022/07/07 05:08:56;;;;;;;2.58;1.00;;;;;;;26.64;41.29;100862.94;4958272;28;20058;-63
2022/07/07 05:11:41;;;;;;;3.10;1.40;;;;;;;26.63;41.57;100864.94;4937420;29;20414;-62
2022/07/07 05:14:26;;;;;;;2.83;0.82;;;;;;;26.71;41.24;100865.63;4920572;29;20098;-62
2022/07/07 05:17:11;;;;;;;5.57;0.80;;;;;;;26.75;41.90;100864.38;4937874;29;20050;-62
2022/07/07 05:19:58;;;;;;;3.20;0.73;;;;;;;26.78;41.59;100857.91;4930352;28;20685;-63
2022/07/07 05:22:42;;;;;;;1.92;0.60;;;;;;;26.79;41.48;100859.50;4928653;29;20129;-62
2022/07/07 05:25:28;;;;;;;4.90;0.80;;;;;;;26.82;41.68;100855.84;4931250;28;20422;-64
2022/07/07 05:28:13;;;;;;;28.20;7.60;;;;;;;26.84;41.52;100863.81;4936133;28;20051;-62
2022/07/07 05:30:59;;;;;;;26.83;6.93;;;;;;;26.85;41.27;100870.97;4930076;29;20504;-63
2022/07/07 05:33:44;;;;;;;14.20;2.45;;;;;;;26.80;41.41;100869.47;4934788;29;20051;-65
2022/07/07 05:36:29;;;;;;;16.08;3.67;;;;;;;26.75;41.83;100871.94;4934424;29;20070;-63
2022/07/07 05:39:14;;;;;;;4.43;1.67;;;;;;;26.77;42.22;100877.88;4946131;28;20050;-63
2022/07/07 05:41:59;;;;;;;5.32;0.80;;;;;;;26.75;42.12;100883.91;4942107;29;20054;-63
2022/07/07 05:44:44;;;;;;;68.90;7.03;;;;;;;26.71;42.30;100879.59;4931798;29;20046;-63
2022/07/07 05:47:29;;;;;;;38.88;4.18;;;;;;;26.75;42.19;100885.88;4953402;29;20487;-65
2022/07/07 05:50:14;;;;;;;45.78;4.00;;;;;;;26.78;42.53;100877.47;4951481;28;20050;-63
2022/07/07 05:52:59;;;;;;;39.67;3.25;;;;;;;26.85;42.38;100872.97;4953584;29;20035;-66
2022/07/07 05:55:44;;;;;;;18.65;1.90;;;;;;;26.87;42.35;100881.75;4954268;29;20054;-64
2022/07/07 05:58:29;;;;;;;20.48;2.03;;;;;;;26.90;42.07;100872.53;4954097;28;20406;-63
2022/07/07 06:01:14;;;;;;;16.80;1.38;;;;;;;26.92;42.27;100881.28;4949242;29;20070;-65
2022/07/07 06:03:59;;;;;;;25.05;1.58;;;;;;;26.99;41.85;100876.38;4937493;29;20044;-63
2022/07/07 06:06:43;;;;;;;20.08;1.30;;;;;;;27.07;42.06;100877.06;4934634;29;20051;-62
2022/07/07 06:09:29;;;;;;;18.50;1.40;;;;;;;27.08;41.88;100884.19;4940422;28;20043;-63
2022/07/07 06:12:14;;;;;;;10.13;1.08;;;;;;;26.95;41.91;100880.44;4948447;29;20043;-62
2022/07/07 06:14:59;;;;;;;10.93;1.20;;;;;;;27.00;41.51;100886.31;4953118;29;20054;-60
2022/07/07 06:17:44;;;;;;;13.05;1.38;;;;;;;27.00;42.05;100889.13;4954849;28;20039;-64
2022/07/07 06:20:30;;;;;;;3.88;0.73;;;;;;;27.00;41.95;100885.53;4951324;28;20042;-63
2022/07/07 06:23:14;;;;;;;6.75;0.90;;;;;;;26.97;41.67;100889.19;4933774;29;20055;-63
2022/07/07 06:26:02;;;;;;;2.70;0.90;;;;;;;26.98;41.73;100885.94;4930745;28;20054;-63
2022/07/07 06:28:47;;;;;;;6.38;0.82;;;;;;;26.98;41.63;100879.56;4942735;28;20050;-66
2022/07/07 06:31:32;;;;;;;8.63;1.30;;;;;;;26.85;42.04;100875.78;4945029;29;20054;-64
2022/07/07 06:34:17;;;;;;;10.70;1.17;;;;;;;26.86;41.91;100883.72;4947690;29;20392;-65
2022/07/07 06:37:02;;;;;;;6.35;1.50;;;;;;;26.70;42.82;100875.22;4932464;29;20048;-66
2022/07/07 06:39:47;;;;;;;1.75;1.20;;;;;;;26.60;43.65;100870.56;4930084;29;20042;-66
2022/07/07 06:42:32;;;;;;;2.72;0.90;;;;;;;26.60;43.79;100879.72;4934869;29;20050;-62
2022/07/07 06:45:23;;;;;;;3.63;0.88;;;;;;;26.70;43.74;100880.78;4934923;29;20051;-63
2022/07/07 06:48:08;;;;;;;1.38;0.80;;;;;;;26.78;43.61;100885.03;4934999;29;20070;-64
2022/07/07 06:50:54;;;;;;;2.92;0.80;;;;;;;26.89;43.43;100876.53;4934984;29;20055;-63
2022/07/07 06:53:39;;;;;;;2.20;0.75;;;;;;;26.93;42.93;100882.84;4934932;29;20050;-63
2022/07/07 06:56:24;;;;;;;2.75;1.13;;;;;;;27.00;42.73;100885.53;4934787;29;20058;-63
2022/07/07 06:59:09;;;;;;;1.20;0.85;;;;;;;26.97;42.15;100880.81;4934369;29;20047;-63
2022/07/07 07:01:54;;;;;;;0.52;0.52;;;;;;;26.95;41.86;100886.81;4934737;29;20050;-61
2022/07/07 07:04:39;;;;;;;1.73;0.88;;;;;;;27.07;41.61;100888.22;4947547;29;20470;-61
2022/07/07 07:07:24;;;;;;;6.93;1.58;;;;;;;26.90;41.75;100892.88;4952589;29;20515;-64
2022/07/07 07:10:10;;;;;;;3.08;0.85;;;;;;;26.86;42.21;100891.31;4952753;28;20055;-63
2022/07/07 07:12:54;;;;;;;4.32;1.15;;;;;;;26.89;41.90;100896.88;4952773;29;20054;-63
2022/07/07 07:15:40;;;;;;;2.13;0.90;;;;;;;26.96;42.15;100893.97;4952942;29;20053;-63
2022/07/07 07:18:25;;;;;;;1.33;0.82;;;;;;;27.06;41.21;100886.63;4948859;23;20059;-62
2022/07/07 07:21:10;;;;;;;2.42;0.90;;;;;;;27.16;41.52;100897.63;4943047;29;20050;-61
2022/07/07 07:23:55;;;;;;;4.35;0.70;;;;;;;27.28;41.15;100893.44;4955853;28;20132;-62
2022/07/07 07:26:40;;;;;;;1.50;0.80;;;;;;;27.39;40.98;100902.41;4949164;28;20062;-61
2022/07/07 07:29:25;;;;;;;435.00;88.07;;;;;;;27.57;40.88;100900.16;4951311;28;20525;-65
2022/07/07 07:32:10;;;;;;;2.55;0.80;;;;;;;27.51;40.48;100907.44;4955369;28;20043;-62
2022/07/07 07:34:55;;;;;;;8.15;2.15;;;;;;;27.44;40.78;100901.13;4953266;28;20398;-59
2022/07/07 07:37:40;;;;;;;11.68;1.38;;;;;;;27.60;40.75;100898.47;4946486;28;20050;-63
2022/07/07 07:40:26;;;;;;;3.05;0.82;;;;;;;27.69;40.35;100901.50;4952048;28;20050;-63
2022/07/07 07:43:10;;;;;;;3.08;0.85;;;;;;;27.75;39.90;100894.22;4948974;28;20530;-63
2022/07/07 07:45:55;;;;;;;1.58;0.80;;;;;;;27.79;39.57;100894.91;4947060;28;20129;-63
2022/07/07 07:48:40;;;;;;;7.10;0.80;;;;;;;27.83;39.66;100892.88;4947897;28;20062;-63
2022/07/07 07:51:25;;;;;;;3.30;0.90;;;;;;;27.84;40.09;100896.44;4955469;28;20054;-63
2022/07/07 07:54:10;;;;;;;0.65;0.60;;;;;;;27.93;39.71;100894.66;4954624;28;20054;-63
2022/07/07 07:56:55;;;;;;;2.53;0.90;;;;;;;27.98;39.51;100890.56;4956252;29;20054;-63
2022/07/07 07:59:40;;;;;;;1.35;0.77;;;;;;;28.03;39.41;100892.88;4955651;28;20070;-63
2022/07/07 08:02:25;;;;;;;3.95;1.00;;;;;;;28.07;39.69;100899.19;4955641;29;20070;-64
2022/07/07 08:05:11;;;;;;;6.22;0.85;;;;;;;28.09;39.22;100888.34;4955104;28;20050;-63
2022/07/07 08:07:56;;;;;;;1.48;0.90;;;;;;;28.15;38.91;100889.44;4942649;28;20522;-63
2022/07/07 08:10:41;;;;;;;1.50;0.70;;;;;;;28.20;39.22;100891.72;4955183;28;20042;-63
2022/07/07 08:13:26;;;;;;;2.90;0.73;;;;;;;28.23;39.07;100885.28;4955215;28;20050;-63
2022/07/07 08:16:11;;;;;;;2.33;0.77;;;;;;;28.22;39.25;100883.72;4958156;28;20446;-63
2022/07/07 08:18:56;;;;;;;14.30;1.83;;;;;;;28.23;39.67;100878.91;4954913;28;20046;-64
2022/07/07 08:21:41;;;;;;;1.23;0.70;;;;;;;28.25;39.19;100882.03;4941040;28;20487;-63
2022/07/07 08:24:26;;;;;;;4.10;1.10;;;;;;;28.25;38.71;100879.25;4958054;28;20070;-63
2022/07/07 08:27:11;;;;;;;1.05;0.63;;;;;;;28.24;39.04;100884.03;4954679;28;20054;-63
2022/07/07 08:29:56;;;;;;;1.85;1.02;;;;;;;28.25;39.17;100882.84;4954496;28;20046;-63
2022/07/07 08:32:44;;;;;;;4.22;1.25;;;;;;;28.26;39.10;100884.41;4953432;28;20058;-64
2022/07/07 08:35:29;;;;;;;4.05;1.20;;;;;;;28.33;39.29;100887.06;4956836;28;20538;-63
2022/07/07 08:38:15;;;;;;;5.78;1.58;;;;;;;28.36;39.08;100893.78;4953612;28;20070;-63
2022/07/07 08:41:00;;;;;;;9.32;2.63;;;;;;;28.39;38.95;100898.53;4954841;29;20047;-63
2022/07/07 08:43:45;;;;;;;12.70;3.33;;;;;;;28.41;39.07;100893.28;4954961;29;20521;-64
2022/07/07 08:46:30;;;;;;;13.40;2.28;;;;;;;28.46;38.73;100896.38;4954337;29;20042;-63
2022/07/07 08:49:15;;;;;;;3.38;1.02;;;;;;;28.49;39.25;100898.31;4966460;28;20043;-63
2022/07/07 08:52:01;;;;;;;14.85;3.35;;;;;;;28.55;38.89;100901.34;4952930;28;20062;-63
2022/07/07 08:54:47;;;;;;;12.82;3.17;;;;;;;28.60;39.41;100895.25;4948772;28;20043;-63
2022/07/07 08:57:34;;;;;;;19.60;3.03;;;;;;;28.61;38.59;100888.44;4955223;29;20047;-63
2022/07/07 09:00:20;;;;;;;8.07;2.20;;;;;;;28.67;38.39;100897.09;4954193;28;20043;-64
2022/07/07 09:03:07;;;;;;;4.30;1.30;;;;;;;28.70;38.06;100882.25;4954467;29;20050;-63
2022/07/07 09:05:53;;;;;;;13.23;2.88;;;;;;;28.78;38.26;100880.88;4953278;29;20054;-63
2022/07/07 09:08:40;;;;;;;7.18;2.15;;;;;;;28.82;37.70;100876.00;4955436;28;20042;-65
2022/07/07 09:11:33;;;;;;;5.45;1.20;;;;;;;28.88;37.47;100882.66;4953186;28;20050;-63
2022/07/07 09:14:18;;;;;;;3.03;1.10;;;;;;;28.97;36.93;100882.81;4952213;28;20047;-65
2022/07/07 09:17:13;;;;;;;3.17;1.20;;;;;;;29.03;36.89;100886.69;4950272;28;20055;-65
2022/07/07 09:20:04;;;;;;;;;;;;;;;29.07;36.81;100892.97;4953266;28;20046;-65
2022/07/07 09:22:54;;;;;;;10.50;3.20;;;;;;;29.08;36.36;100866.53;4951271;29;19914;-65
2022/07/07 09:25:40;;;;;;;1.50;0.90;;;;;;;29.13;36.34;100876.44;4953208;29;20043;-65
2022/07/07 09:28:26;;;;;;;2.40;1.08;;;;;;;29.16;36.17;100867.13;4954008;28;20054;-65
2022/07/07 09:31:14;;;;;;;4.43;1.27;;;;;;;29.25;36.06;100879.31;4957671;28;20050;-65
2022/07/07 09:34:12;;;;;;;3.22;1.02;;;;;;;29.32;35.68;100878.38;4954188;28;20050;-67
2022/07/07 09:40:02;;;;;;;6.07;2.20;;;;;;;29.33;36.17;100871.53;4968413;28;20039;-67
2022/07/07 09:42:47;;;;;;;7.72;1.95;;;;;;;29.36;35.99;100884.66;4953524;29;20054;-65
2022/07/07 09:45:32;;;;;;;5.60;0.82;;;;;;;29.38;35.87;100879.41;4953839;29;20054;-67
2022/07/07 09:48:17;;;;;;;4.75;1.38;;;;;;;29.44;36.51;100876.88;4956019;28;20054;-67
2022/07/07 09:51:24;;;;;;;10.63;1.27;;;;;;;29.50;36.48;100873.09;4955072;28;20042;-68
2022/07/07 09:54:12;;;;;;;3.63;1.23;;;;;;;29.53;35.92;100880.59;4950656;28;20058;-67
2022/07/07 09:56:57;;;;;;;2.08;0.70;;;;;;;29.54;35.49;100881.41;4960448;28;20043;-64
2022/07/07 09:59:42;;;;;;;2.30;1.00;;;;;;;29.57;36.10;100886.13;4952368;28;20042;-64
2022/07/07 10:02:29;;;;;;;4.32;1.15;;;;;;;29.61;35.95;100878.41;4951966;29;20457;-67
2022/07/07 10:05:17;;;;;;;4.75;1.80;;;;;;;29.64;36.02;100872.69;4952605;29;20702;-67
2022/07/07 10:08:03;;;;;;;10.43;1.60;;;;;;;29.65;35.77;100870.69;4948967;29;20575;-65
2022/07/07 10:10:48;;;;;;;5.80;0.70;;;;;;;29.69;36.24;100872.16;4950674;29;20487;-65
2022/07/07 10:13:37;;;;;;;8.98;2.53;;;;;;;29.74;36.57;100860.41;4943134;28;20054;-66
2022/07/07 10:16:22;;;;;;;8.48;1.00;;;;;;;29.75;36.45;100864.78;4942520;28;20063;-65
2022/07/07 10:19:09;;;;;;;3.25;1.33;;;;;;;29.80;36.29;100851.44;4944589;28;20058;-65
2022/07/07 10:21:57;;;;;;;3.30;1.65;;;;;;;29.84;36.53;100855.72;4945444;29;20050;-65
2022/07/07 10:24:43;;;;;;;2.55;1.00;;;;;;;29.87;36.83;100848.47;4934534;29;20054;-65
2022/07/07 10:27:28;;;;;;;4.55;0.98;;;;;;;29.91;36.99;100860.38;4936687;29;20050;-64
2022/07/07 10:30:31;;;;;;;2.65;1.05;;;;;;;29.96;36.56;100854.22;4952872;28;20058;-67
2022/07/07 10:33:15;;;;;;;2.67;1.00;;;;;;;29.96;36.68;100846.59;4952036;28;20055;-66
2022/07/07 10:36:00;;;;;;;6.20;1.13;;;;;;;30.01;36.38;100834.03;4955079;28;20046;-64
2022/07/07 10:38:50;;;;;;;3.05;0.82;;;;;;;30.09;36.56;100824.16;4946972;28;20046;-65
2022/07/07 10:41:35;;;;;;;1.77;0.80;;;;;;;30.13;36.79;100816.44;4949677;29;20136;-69
2022/07/07 10:44:21;;;;;;;2.53;0.80;;;;;;;30.20;37.06;100813.41;4938763;29;20047;-65
2022/07/07 10:47:12;;;;;;;2.17;1.00;;;;;;;30.25;37.23;100812.06;4951676;29;20054;-65
2022/07/07 10:49:58;;;;;;;1.13;0.73;;;;;;;30.32;36.52;100817.47;4951903;28;20054;-66
2022/07/07 10:52:42;;;;;;;3.28;1.08;;;;;;;30.32;36.13;100801.44;4944490;28;20050;-65
2022/07/07 10:55:50;;;;;;;1.88;0.90;;;;;;;30.42;36.28;100813.53;4948590;28;20046;-65
2022/07/07 10:58:44;;;;;;;2.25;1.10;;;;;;;30.43;35.90;100803.88;4959882;28;20061;-64
2022/07/07 11:01:31;;;;;;;4.47;1.27;;;;;;;30.43;35.48;100807.47;4952388;28;20050;-65
2022/07/07 11:04:41;;;;;;;3.00;0.90;;;;;;;30.47;36.16;100799.78;4952908;29;20054;-64
2022/07/07 11:07:26;;;;;;;3.85;1.00;;;;;;;30.46;35.61;100789.78;4943539;29;20406;-65
2022/07/07 11:10:13;;;;;;;5.05;0.70;;;;;;;30.54;35.49;100785.50;4950294;28;20055;-65
2022/07/07 11:13:14;;;;;;;6.95;0.90;;;;;;;30.66;35.05;100797.16;4952657;28;20125;-63
2022/07/07 11:16:10;;;;;;;2.28;0.82;;;;;;;30.68;35.00;100800.31;4947775;28;20522;-66
2022/07/07 11:18:57;;;;;;;2.13;0.85;;;;;;;30.73;35.00;100780.09;4949367;28;20398;-65
2022/07/07 11:21:44;;;;;;;5.68;0.98;;;;;;;30.76;35.08;100788.38;4948626;29;20510;-65
2022/07/07 11:24:29;;;;;;;3.83;1.10;;;;;;;30.78;34.85;100777.47;4949090;28;20062;-65
2022/07/07 11:27:14;;;;;;;1.35;0.80;;;;;;;30.77;34.93;100773.13;4955449;29;20649;-65
2022/07/07 11:30:00;;;;;;;8.60;1.00;;;;;;;30.83;34.98;100778.94;4953211;28;20050;-64
2022/07/07 11:32:45;;;;;;;1.48;0.80;;;;;;;30.84;34.76;100769.25;4952808;28;20526;-66
2022/07/07 11:35:31;;;;;;;2.13;0.82;;;;;;;30.88;34.94;100767.13;4954072;28;20418;-67
2022/07/07 11:38:16;;;;;;;0.73;0.70;;;;;;;30.94;34.85;100773.72;4954301;28;20058;-67
2022/07/07 11:41:01;;;;;;;2.33;0.70;;;;;;;30.97;35.05;100761.59;4963320;28;20685;-66
2022/07/07 11:43:56;;;;;;;2.75;0.95;;;;;;;31.04;35.01;100761.38;4947661;29;20406;-66
2022/07/07 11:46:41;;;;;;;2.75;1.17;;;;;;;31.08;34.96;100756.44;4951638;29;20050;-67
2022/07/07 11:49:26;;;;;;;3.13;0.90;;;;;;;31.10;34.86;100753.94;4954634;28;20070;-66
2022/07/07 11:52:15;;;;;;;1.90;0.82;;;;;;;31.12;34.64;100751.47;4953388;29;20042;-66
2022/07/07 11:55:04;;;;;;;2.22;1.05;;;;;;;31.15;34.88;100753.34;4949400;28;20050;-66
2022/07/07 11:58:05;;;;;;;10.05;1.77;;;;;;;31.21;34.73;100747.94;4947414;28;20396;-66
2022/07/07 12:00:56;;;;;;;7.93;1.20;;;;;;;31.20;34.88;100737.94;4950145;29;20074;-68
2022/07/07 12:03:41;;;;;;;0.82;0.73;;;;;;;31.24;34.98;100739.38;4947139;29;20042;-67
2022/07/07 12:06:27;;;;;;;4.93;1.08;;;;;;;31.23;34.79;100737.03;4955120;29;20419;-67
2022/07/07 12:09:13;;;;;;;3.38;1.40;;;;;;;31.27;34.66;100738.47;4955690;29;20112;-67
2022/07/07 12:11:58;;;;;;;6.30;1.70;;;;;;;31.28;34.94;100725.19;4952718;29;20046;-67
2022/07/07 12:14:43;;;;;;;1.05;0.80;;;;;;;31.34;35.00;100734.63;4951177;29;20070;-65
2022/07/07 12:17:38;;;;;;;2.50;1.30;;;;;;;31.37;35.01;100723.25;4958399;28;20119;-67
2022/07/07 12:20:23;;;;;;;;;;;;;;;31.39;35.14;100717.16;4963833;28;20049;-67
2022/07/07 12:23:16;;;;;;;3.08;0.60;;;;;;;31.41;34.84;100715.44;4954797;28;20382;-67
2022/07/07 12:26:08;;;;;;;2.17;1.00;;;;;;;31.48;34.37;100705.97;4955498;29;20058;-66
2022/07/07 12:29:00;;;;;;;3.28;1.52;;;;;;;31.51;33.76;100710.66;4955679;28;20049;-66
2022/07/07 12:31:46;;;;;;;2.95;0.82;;;;;;;31.53;33.97;100696.16;4953991;28;20470;-66
2022/07/07 12:34:38;;;;;;;2.55;0.82;;;;;;;31.53;34.48;100682.09;4955169;28;20050;-66
2022/07/07 12:37:40;;;;;;;3.67;0.88;;;;;;;31.51;34.36;100685.38;4958231;28;20045;-66
2022/07/07 12:40:25;;;;;;;1.13;0.90;;;;;;;31.47;34.26;100681.13;4957419;28;20054;-66
2022/07/07 12:43:11;;;;;;;1.17;0.93;;;;;;;31.48;34.06;100685.50;4957583;28;20403;-65
2022/07/07 12:46:05;;;;;;;1.73;0.93;;;;;;;31.46;34.14;100682.34;4955433;29;20124;-65
2022/07/07 12:48:52;;;;;;;1.00;0.85;;;;;;;31.41;34.45;100695.78;4954949;28;20050;-64
2022/07/07 12:51:40;;;;;;;0.85;0.70;;;;;;;31.38;34.24;100684.66;4954683;28;20159;-65
2022/07/07 12:54:28;;;;;;;5.25;1.10;;;;;;;31.40;34.50;100688.56;4954654;28;20066;-63